sensor_id;sensor_type;location;lat;lon;timestamp;temperature;humidity
37300;DHT22;23184;51.902;12.836;2023-08-21T00:01:08;21.10;99.90
37300;DHT22;23184;51.902;12.836;2023-08-21T00:03:34;21.10;99.90
37300;DHT22;23184;51.902;12.836;2023-08-21T00:05:59;21.10;99.90
37300;DHT22;23184;51.902;12.836;2023-08-21T00:08:25;21.10;99.90
37300;DHT22;23184;51.902;12.836;2023-08-21T00:10:50;21.10;99.90
37300;DHT22;23184;51.902;12.836;2023-08-21T00:13:16;21.10;99.90
37300;DHT22;23184;51.902;12.836;2023-08-21T00:15:41;21.10;99.90
37300;DHT22;23184;51.902;12.836;2023-08-21T00:18:07;21.10;99.90
37300;DHT22;23184;51.902;12.836;2023-08-21T00:20:32;21.10;99.90
37300;DHT22;23184;51.902;12.836;2023-08-21T00:22:58;21.10;99.90
37300;DHT22;23184;51.902;12.836;2023-08-21T00:25:24;21.10;99.90
37300;DHT22;23184;51.902;12.836;2023-08-21T00:27:50;21.10;99.90
37300;DHT22;23184;51.902;12.836;2023-08-21T00:30:15;21.10;99.90
37300;DHT22;23184;51.902;12.836;2023-08-21T00:32:41;21.10;99.90
37300;DHT22;23184;51.902;12.836;2023-08-21T00:35:07;21.10;99.90
37300;DHT22;23184;51.902;12.836;2023-08-21T00:37:32;21.20;99.90
37300;DHT22;23184;51.902;12.836;2023-08-21T00:39:58;21.20;99.90
37300;DHT22;23184;51.902;12.836;2023-08-21T00:42:23;21.20;99.90
37300;DHT22;23184;51.902;12.836;2023-08-21T00:44:49;21.10;99.90
37300;DHT22;23184;51.902;12.836;2023-08-21T00:47:14;21.00;99.90
37300;DHT22;23184;51.902;12.836;2023-08-21T00:49:40;21.00;99.90
37300;DHT22;23184;51.902;12.836;2023-08-21T00:52:08;20.90;99.90
37300;DHT22;23184;51.902;12.836;2023-08-21T00:54:36;20.80;99.90
37300;DHT22;23184;51.902;12.836;2023-08-21T00:57:01;20.70;99.90
37300;DHT22;23184;51.902;12.836;2023-08-21T00:59:28;20.70;99.90
37300;DHT22;23184;51.902;12.836;2023-08-21T01:01:54;20.70;99.90
37300;DHT22;23184;51.902;12.836;2023-08-21T01:04:20;20.70;99.90
37300;DHT22;23184;51.902;12.836;2023-08-21T01:06:47;20.70;99.90
37300;DHT22;23184;51.902;12.836;2023-08-21T01:12:29;20.60;99.90
37300;DHT22;23184;51.902;12.836;2023-08-21T01:15:01;20.60;99.90
37300;DHT22;23184;51.902;12.836;2023-08-21T01:17:29;20.70;99.90
37300;DHT22;23184;51.902;12.836;2023-08-21T01:19:56;20.70;99.90
37300;DHT22;23184;51.902;12.836;2023-08-21T01:22:43;20.70;99.90
37300;DHT22;23184;51.902;12.836;2023-08-21T01:25:12;20.80;99.90
37300;DHT22;23184;51.902;12.836;2023-08-21T01:27:42;20.70;99.90
37300;DHT22;23184;51.902;12.836;2023-08-21T01:30:08;20.80;99.90
37300;DHT22;23184;51.902;12.836;2023-08-21T01:32:37;20.80;99.90
37300;DHT22;23184;51.902;12.836;2023-08-21T01:35:06;20.80;99.90
37300;DHT22;23184;51.902;12.836;2023-08-21T01:37:32;20.80;99.90
37300;DHT22;23184;51.902;12.836;2023-08-21T01:39:58;20.80;99.90
37300;DHT22;23184;51.902;12.836;2023-08-21T01:42:24;20.90;99.90
37300;DHT22;23184;51.902;12.836;2023-08-21T01:44:49;20.90;99.90
37300;DHT22;23184;51.902;12.836;2023-08-21T01:47:15;20.90;99.90
37300;DHT22;23184;51.902;12.836;2023-08-21T01:49:40;20.90;99.90
37300;DHT22;23184;51.902;12.836;2023-08-21T01:52:06;20.90;99.90
37300;DHT22;23184;51.902;12.836;2023-08-21T01:54:31;20.90;99.90
37300;DHT22;23184;51.902;12.836;2023-08-21T01:56:57;20.90;99.90
37300;DHT22;23184;51.902;12.836;2023-08-21T01:59:24;21.00;99.90
37300;DHT22;23184;51.902;12.836;2023-08-21T02:01:50;21.00;99.90
37300;DHT22;23184;51.902;12.836;2023-08-21T02:04:15;21.00;99.90
37300;DHT22;23184;51.902;12.836;2023-08-21T02:06:41;20.90;99.90
37300;DHT22;23184;51.902;12.836;2023-08-21T02:09:07;20.90;99.90
37300;DHT22;23184;51.902;12.836;2023-08-21T02:11:32;20.90;99.90
37300;DHT22;23184;51.902;12.836;2023-08-21T02:13:58;20.90;99.90
37300;DHT22;23184;51.902;12.836;2023-08-21T02:16:23;20.90;99.90
37300;DHT22;23184;51.902;12.836;2023-08-21T02:18:49;20.90;99.90
37300;DHT22;23184;51.902;12.836;2023-08-21T02:21:14;20.90;99.90
37300;DHT22;23184;51.902;12.836;2023-08-21T02:23:40;20.90;99.90
37300;DHT22;23184;51.902;12.836;2023-08-21T02:26:05;20.90;99.90
37300;DHT22;23184;51.902;12.836;2023-08-21T02:28:31;20.90;99.90
37300;DHT22;23184;51.902;12.836;2023-08-21T02:30:56;20.90;99.90
37300;DHT22;23184;51.902;12.836;2023-08-21T02:33:22;20.80;99.90
37300;DHT22;23184;51.902;12.836;2023-08-21T02:35:47;20.90;99.90
37300;DHT22;23184;51.902;12.836;2023-08-21T02:38:13;20.90;99.90
37300;DHT22;23184;51.902;12.836;2023-08-21T02:40:38;20.90;99.90
37300;DHT22;23184;51.902;12.836;2023-08-21T02:43:04;20.80;99.90
37300;DHT22;23184;51.902;12.836;2023-08-21T02:45:30;20.70;99.90
37300;DHT22;23184;51.902;12.836;2023-08-21T02:47:56;20.70;99.90
37300;DHT22;23184;51.902;12.836;2023-08-21T02:50:21;20.60;99.90
37300;DHT22;23184;51.902;12.836;2023-08-21T02:52:47;20.50;99.90
37300;DHT22;23184;51.902;12.836;2023-08-21T02:55:12;20.50;99.90
37300;DHT22;23184;51.902;12.836;2023-08-21T02:57:39;20.50;99.90
37300;DHT22;23184;51.902;12.836;2023-08-21T03:00:05;20.40;99.90
37300;DHT22;23184;51.902;12.836;2023-08-21T03:02:32;20.40;99.90
37300;DHT22;23184;51.902;12.836;2023-08-21T03:04:58;20.40;99.90
37300;DHT22;23184;51.902;12.836;2023-08-21T03:07:23;20.40;99.90
37300;DHT22;23184;51.902;12.836;2023-08-21T03:09:49;20.40;99.90
37300;DHT22;23184;51.902;12.836;2023-08-21T03:12:15;20.40;99.90
37300;DHT22;23184;51.902;12.836;2023-08-21T03:14:40;20.40;99.90
37300;DHT22;23184;51.902;12.836;2023-08-21T03:17:06;20.40;99.90
37300;DHT22;23184;51.902;12.836;2023-08-21T03:19:32;20.40;99.90
37300;DHT22;23184;51.902;12.836;2023-08-21T03:21:57;20.40;99.90
37300;DHT22;23184;51.902;12.836;2023-08-21T03:24:23;20.40;99.90
37300;DHT22;23184;51.902;12.836;2023-08-21T03:26:48;20.50;99.90
37300;DHT22;23184;51.902;12.836;2023-08-21T03:29:14;20.40;99.90
37300;DHT22;23184;51.902;12.836;2023-08-21T03:31:39;20.40;99.90
37300;DHT22;23184;51.902;12.836;2023-08-21T03:34:05;20.40;99.90
37300;DHT22;23184;51.902;12.836;2023-08-21T03:36:30;20.50;99.90
37300;DHT22;23184;51.902;12.836;2023-08-21T03:39:00;20.50;99.90
37300;DHT22;23184;51.902;12.836;2023-08-21T03:41:26;20.50;99.90
37300;DHT22;23184;51.902;12.836;2023-08-21T03:43:52;20.50;99.90
37300;DHT22;23184;51.902;12.836;2023-08-21T03:46:17;20.60;99.90
37300;DHT22;23184;51.902;12.836;2023-08-21T03:48:43;20.60;99.90
37300;DHT22;23184;51.902;12.836;2023-08-21T03:51:08;20.60;99.90
37300;DHT22;23184;51.902;12.836;2023-08-21T03:53:34;20.70;99.90
37300;DHT22;23184;51.902;12.836;2023-08-21T03:55:59;20.70;99.90
37300;DHT22;23184;51.902;12.836;2023-08-21T03:58:25;20.60;99.90
37300;DHT22;23184;51.902;12.836;2023-08-21T04:00:52;20.50;99.90
37300;DHT22;23184;51.902;12.836;2023-08-21T04:03:17;20.50;99.90
37300;DHT22;23184;51.902;12.836;2023-08-21T04:05:43;20.40;99.90
37300;DHT22;23184;51.902;12.836;2023-08-21T04:08:08;20.40;99.90
37300;DHT22;23184;51.902;12.836;2023-08-21T04:10:34;20.40;99.90
37300;DHT22;23184;51.902;12.836;2023-08-21T04:13:00;20.40;99.90
37300;DHT22;23184;51.902;12.836;2023-08-21T04:15:26;20.40;99.90
37300;DHT22;23184;51.902;12.836;2023-08-21T04:17:51;20.40;99.90
37300;DHT22;23184;51.902;12.836;2023-08-21T04:20:19;20.40;99.90
37300;DHT22;23184;51.902;12.836;2023-08-21T04:22:45;20.40;99.90
37300;DHT22;23184;51.902;12.836;2023-08-21T04:25:10;20.40;99.90
37300;DHT22;23184;51.902;12.836;2023-08-21T04:27:36;20.50;99.90
37300;DHT22;23184;51.902;12.836;2023-08-21T04:30:02;20.50;99.90
37300;DHT22;23184;51.902;12.836;2023-08-21T04:32:28;20.50;99.90
37300;DHT22;23184;51.902;12.836;2023-08-21T04:34:53;20.50;99.90
37300;DHT22;23184;51.902;12.836;2023-08-21T04:37:19;20.50;99.90
37300;DHT22;23184;51.902;12.836;2023-08-21T04:39:44;20.60;99.90
37300;DHT22;23184;51.902;12.836;2023-08-21T04:42:11;20.60;99.90
37300;DHT22;23184;51.902;12.836;2023-08-21T04:44:36;20.60;99.90
37300;DHT22;23184;51.902;12.836;2023-08-21T04:47:25;20.60;99.90
37300;DHT22;23184;51.902;12.836;2023-08-21T04:49:54;20.60;99.90
37300;DHT22;23184;51.902;12.836;2023-08-21T04:52:21;20.60;99.90
37300;DHT22;23184;51.902;12.836;2023-08-21T04:54:50;20.60;99.90
37300;DHT22;23184;51.902;12.836;2023-08-21T04:57:16;20.60;99.90
37300;DHT22;23184;51.902;12.836;2023-08-21T04:59:43;20.70;99.90
37300;DHT22;23184;51.902;12.836;2023-08-21T05:02:09;20.70;99.90
37300;DHT22;23184;51.902;12.836;2023-08-21T05:04:36;20.80;99.90
37300;DHT22;23184;51.902;12.836;2023-08-21T05:07:03;20.80;99.90
37300;DHT22;23184;51.902;12.836;2023-08-21T05:09:28;20.90;99.90
37300;DHT22;23184;51.902;12.836;2023-08-21T05:11:54;21.00;99.90
37300;DHT22;23184;51.902;12.836;2023-08-21T05:14:20;21.00;99.90
37300;DHT22;23184;51.902;12.836;2023-08-21T05:16:46;21.10;99.90
37300;DHT22;23184;51.902;12.836;2023-08-21T05:19:12;21.20;99.90
37300;DHT22;23184;51.902;12.836;2023-08-21T05:21:38;21.20;99.90
37300;DHT22;23184;51.902;12.836;2023-08-21T05:24:03;21.30;99.90
37300;DHT22;23184;51.902;12.836;2023-08-21T05:26:29;21.30;99.90
37300;DHT22;23184;51.902;12.836;2023-08-21T05:28:54;21.30;99.90
37300;DHT22;23184;51.902;12.836;2023-08-21T05:31:20;21.30;99.90
37300;DHT22;23184;51.902;12.836;2023-08-21T05:33:45;21.30;99.90
37300;DHT22;23184;51.902;12.836;2023-08-21T05:36:11;21.30;99.90
37300;DHT22;23184;51.902;12.836;2023-08-21T05:38:36;21.30;99.90
37300;DHT22;23184;51.902;12.836;2023-08-21T05:41:02;21.30;99.90
37300;DHT22;23184;51.902;12.836;2023-08-21T05:43:27;21.20;99.90
37300;DHT22;23184;51.902;12.836;2023-08-21T05:45:53;21.20;99.90
37300;DHT22;23184;51.902;12.836;2023-08-21T05:48:18;21.20;99.90
37300;DHT22;23184;51.902;12.836;2023-08-21T05:50:44;21.10;99.90
37300;DHT22;23184;51.902;12.836;2023-08-21T05:53:09;21.10;99.90
37300;DHT22;23184;51.902;12.836;2023-08-21T05:55:38;21.10;99.90
37300;DHT22;23184;51.902;12.836;2023-08-21T05:58:03;21.10;99.90
37300;DHT22;23184;51.902;12.836;2023-08-21T06:00:29;21.20;99.90
37300;DHT22;23184;51.902;12.836;2023-08-21T06:02:54;21.10;99.90
37300;DHT22;23184;51.902;12.836;2023-08-21T06:05:20;21.20;99.90
37300;DHT22;23184;51.902;12.836;2023-08-21T06:07:45;21.20;99.90
37300;DHT22;23184;51.902;12.836;2023-08-21T06:10:11;21.30;99.90
37300;DHT22;23184;51.902;12.836;2023-08-21T06:12:39;21.40;99.90
37300;DHT22;23184;51.902;12.836;2023-08-21T06:15:05;21.50;99.90
37300;DHT22;23184;51.902;12.836;2023-08-21T06:17:33;21.60;99.90
37300;DHT22;23184;51.902;12.836;2023-08-21T06:19:58;21.80;99.90
37300;DHT22;23184;51.902;12.836;2023-08-21T06:22:24;22.00;99.90
37300;DHT22;23184;51.902;12.836;2023-08-21T06:24:50;22.20;99.90
37300;DHT22;23184;51.902;12.836;2023-08-21T06:27:15;22.30;99.90
37300;DHT22;23184;51.902;12.836;2023-08-21T06:29:41;22.30;99.90
37300;DHT22;23184;51.902;12.836;2023-08-21T06:32:06;22.40;99.90
37300;DHT22;23184;51.902;12.836;2023-08-21T06:34:32;22.60;99.90
37300;DHT22;23184;51.902;12.836;2023-08-21T06:36:57;22.60;99.90
37300;DHT22;23184;51.902;12.836;2023-08-21T06:39:23;22.80;99.90
37300;DHT22;23184;51.902;12.836;2023-08-21T06:41:49;22.80;99.90
37300;DHT22;23184;51.902;12.836;2023-08-21T06:44:15;23.00;99.90
37300;DHT22;23184;51.902;12.836;2023-08-21T06:46:40;23.10;99.90
37300;DHT22;23184;51.902;12.836;2023-08-21T06:49:06;23.20;99.90
37300;DHT22;23184;51.902;12.836;2023-08-21T06:51:31;23.40;99.90
37300;DHT22;23184;51.902;12.836;2023-08-21T06:53:58;23.60;99.90
37300;DHT22;23184;51.902;12.836;2023-08-21T06:56:23;24.00;99.90
37300;DHT22;23184;51.902;12.836;2023-08-21T06:58:49;24.20;99.90
37300;DHT22;23184;51.902;12.836;2023-08-21T07:01:14;24.40;99.90
37300;DHT22;23184;51.902;12.836;2023-08-21T07:03:40;24.40;99.90
37300;DHT22;23184;51.902;12.836;2023-08-21T07:06:05;24.50;99.90
37300;DHT22;23184;51.902;12.836;2023-08-21T07:08:31;24.50;99.90
37300;DHT22;23184;51.902;12.836;2023-08-21T07:10:56;24.60;99.90
37300;DHT22;23184;51.902;12.836;2023-08-21T07:13:22;24.60;99.90
37300;DHT22;23184;51.902;12.836;2023-08-21T07:15:48;24.60;99.90
37300;DHT22;23184;51.902;12.836;2023-08-21T07:18:13;24.70;99.90
37300;DHT22;23184;51.902;12.836;2023-08-21T07:20:39;24.50;99.90
37300;DHT22;23184;51.902;12.836;2023-08-21T07:23:05;24.50;99.90
37300;DHT22;23184;51.902;12.836;2023-08-21T07:25:31;24.40;99.90
37300;DHT22;23184;51.902;12.836;2023-08-21T07:27:57;24.50;99.90
37300;DHT22;23184;51.902;12.836;2023-08-21T07:30:22;24.40;99.90
37300;DHT22;23184;51.902;12.836;2023-08-21T07:32:48;24.40;99.90
37300;DHT22;23184;51.902;12.836;2023-08-21T07:35:14;24.40;99.90
37300;DHT22;23184;51.902;12.836;2023-08-21T07:37:44;24.30;99.90
37300;DHT22;23184;51.902;12.836;2023-08-21T07:40:10;24.20;99.90
37300;DHT22;23184;51.902;12.836;2023-08-21T07:42:35;24.20;99.90
37300;DHT22;23184;51.902;12.836;2023-08-21T07:45:01;24.20;99.90
37300;DHT22;23184;51.902;12.836;2023-08-21T07:47:27;24.30;99.90
37300;DHT22;23184;51.902;12.836;2023-08-21T07:49:53;24.30;99.90
37300;DHT22;23184;51.902;12.836;2023-08-21T07:52:19;24.40;99.90
37300;DHT22;23184;51.902;12.836;2023-08-21T07:54:44;24.60;99.90
37300;DHT22;23184;51.902;12.836;2023-08-21T07:57:10;24.70;99.90
37300;DHT22;23184;51.902;12.836;2023-08-21T07:59:35;24.80;99.90
37300;DHT22;23184;51.902;12.836;2023-08-21T08:02:01;24.80;99.90
37300;DHT22;23184;51.902;12.836;2023-08-21T08:04:28;24.90;99.90
37300;DHT22;23184;51.902;12.836;2023-08-21T08:06:54;24.90;99.90
37300;DHT22;23184;51.902;12.836;2023-08-21T08:09:19;25.00;99.90
37300;DHT22;23184;51.902;12.836;2023-08-21T08:11:45;25.00;99.90
37300;DHT22;23184;51.902;12.836;2023-08-21T08:14:10;25.00;99.90
37300;DHT22;23184;51.902;12.836;2023-08-21T08:16:36;25.00;99.90
37300;DHT22;23184;51.902;12.836;2023-08-21T08:19:01;25.10;99.90
37300;DHT22;23184;51.902;12.836;2023-08-21T08:21:27;25.10;99.90
37300;DHT22;23184;51.902;12.836;2023-08-21T08:23:52;25.10;99.90
37300;DHT22;23184;51.902;12.836;2023-08-21T08:26:18;25.10;99.90
37300;DHT22;23184;51.902;12.836;2023-08-21T08:28:44;25.00;99.90
37300;DHT22;23184;51.902;12.836;2023-08-21T08:31:17;25.00;99.90
37300;DHT22;23184;51.902;12.836;2023-08-21T08:33:42;25.00;99.90
37300;DHT22;23184;51.902;12.836;2023-08-21T08:36:08;25.00;99.90
37300;DHT22;23184;51.902;12.836;2023-08-21T08:38:33;25.20;99.90
37300;DHT22;23184;51.902;12.836;2023-08-21T08:41:01;25.20;99.90
37300;DHT22;23184;51.902;12.836;2023-08-21T08:43:27;25.30;99.90
37300;DHT22;23184;51.902;12.836;2023-08-21T08:45:56;25.40;99.90
37300;DHT22;23184;51.902;12.836;2023-08-21T08:48:23;25.70;99.90
37300;DHT22;23184;51.902;12.836;2023-08-21T08:50:50;26.00;99.90
37300;DHT22;23184;51.902;12.836;2023-08-21T08:53:16;26.60;99.90
37300;DHT22;23184;51.902;12.836;2023-08-21T08:55:43;27.30;99.90
37300;DHT22;23184;51.902;12.836;2023-08-21T08:58:08;27.80;99.90
37300;DHT22;23184;51.902;12.836;2023-08-21T09:00:34;27.90;99.90
37300;DHT22;23184;51.902;12.836;2023-08-21T09:02:59;27.90;99.90
37300;DHT22;23184;51.902;12.836;2023-08-21T09:05:25;28.00;99.90
37300;DHT22;23184;51.902;12.836;2023-08-21T09:08:09;28.60;99.90
37300;DHT22;23184;51.902;12.836;2023-08-21T09:10:39;29.70;99.90
37300;DHT22;23184;51.902;12.836;2023-08-21T09:13:16;30.30;99.90
37300;DHT22;23184;51.902;12.836;2023-08-21T09:15:47;30.50;99.90
37300;DHT22;23184;51.902;12.836;2023-08-21T09:18:13;30.50;99.90
37300;DHT22;23184;51.902;12.836;2023-08-21T09:20:41;30.70;99.90
37300;DHT22;23184;51.902;12.836;2023-08-21T09:23:07;30.70;99.90
37300;DHT22;23184;51.902;12.836;2023-08-21T09:25:34;31.00;99.90
37300;DHT22;23184;51.902;12.836;2023-08-21T09:28:04;31.90;99.90
37300;DHT22;23184;51.902;12.836;2023-08-21T09:30:30;33.00;99.90
37300;DHT22;23184;51.902;12.836;2023-08-21T09:32:59;33.50;99.90
37300;DHT22;23184;51.902;12.836;2023-08-21T09:35:32;33.40;99.90
37300;DHT22;23184;51.902;12.836;2023-08-21T09:37:59;33.80;99.90
37300;DHT22;23184;51.902;12.836;2023-08-21T09:40:24;34.30;99.90
37300;DHT22;23184;51.902;12.836;2023-08-21T09:42:54;35.00;98.70
37300;DHT22;23184;51.902;12.836;2023-08-21T09:45:25;35.60;97.70
37300;DHT22;23184;51.902;12.836;2023-08-21T09:47:54;36.10;91.90
37300;DHT22;23184;51.902;12.836;2023-08-21T09:50:20;35.90;90.00
37300;DHT22;23184;51.902;12.836;2023-08-21T09:52:46;36.00;89.70
37300;DHT22;23184;51.902;12.836;2023-08-21T09:55:15;36.20;90.00
37300;DHT22;23184;51.902;12.836;2023-08-21T09:57:41;36.80;89.10
37300;DHT22;23184;51.902;12.836;2023-08-21T10:00:08;37.10;81.10
37300;DHT22;23184;51.902;12.836;2023-08-21T10:02:42;37.20;77.60
37300;DHT22;23184;51.902;12.836;2023-08-21T10:05:12;37.50;75.80
37300;DHT22;23184;51.902;12.836;2023-08-21T10:07:38;37.70;75.90
37300;DHT22;23184;51.902;12.836;2023-08-21T10:10:04;38.20;75.60
37300;DHT22;23184;51.902;12.836;2023-08-21T10:12:30;38.40;73.10
37300;DHT22;23184;51.902;12.836;2023-08-21T10:14:55;38.50;69.70
37300;DHT22;23184;51.902;12.836;2023-08-21T10:17:21;38.60;72.20
37300;DHT22;23184;51.902;12.836;2023-08-21T10:19:51;38.90;72.00
37300;DHT22;23184;51.902;12.836;2023-08-21T10:25:04;38.80;67.90
37300;DHT22;23184;51.902;12.836;2023-08-21T10:27:38;38.30;69.40
37300;DHT22;23184;51.902;12.836;2023-08-21T10:30:15;38.50;69.80
37300;DHT22;23184;51.902;12.836;2023-08-21T10:32:46;38.70;68.30
37300;DHT22;23184;51.902;12.836;2023-08-21T10:35:18;39.20;70.20
37300;DHT22;23184;51.902;12.836;2023-08-21T10:40:39;40.60;66.70
37300;DHT22;23184;51.902;12.836;2023-08-21T10:43:40;41.10;67.60
37300;DHT22;23184;51.902;12.836;2023-08-21T10:46:07;41.70;64.90
37300;DHT22;23184;51.902;12.836;2023-08-21T10:48:34;41.80;65.30
37300;DHT22;23184;51.902;12.836;2023-08-21T10:51:02;42.10;62.00
37300;DHT22;23184;51.902;12.836;2023-08-21T10:53:29;42.30;62.10
37300;DHT22;23184;51.902;12.836;2023-08-21T10:55:55;42.40;60.10
37300;DHT22;23184;51.902;12.836;2023-08-21T10:58:21;42.30;61.60
37300;DHT22;23184;51.902;12.836;2023-08-21T11:00:55;42.60;59.60
37300;DHT22;23184;51.902;12.836;2023-08-21T11:03:21;42.30;59.30
37300;DHT22;23184;51.902;12.836;2023-08-21T11:06:00;41.00;60.00
37300;DHT22;23184;51.902;12.836;2023-08-21T11:08:26;39.50;62.70
37300;DHT22;23184;51.902;12.836;2023-08-21T11:10:51;38.80;65.40
37300;DHT22;23184;51.902;12.836;2023-08-21T11:13:18;38.90;67.30
37300;DHT22;23184;51.902;12.836;2023-08-21T11:15:45;39.10;65.40
37300;DHT22;23184;51.902;12.836;2023-08-21T11:18:11;39.60;64.50
37300;DHT22;23184;51.902;12.836;2023-08-21T11:20:36;40.20;62.30
37300;DHT22;23184;51.902;12.836;2023-08-21T11:23:06;40.80;59.80
37300;DHT22;23184;51.902;12.836;2023-08-21T11:25:33;41.50;60.00
37300;DHT22;23184;51.902;12.836;2023-08-21T11:27:59;41.80;59.00
37300;DHT22;23184;51.902;12.836;2023-08-21T11:30:25;42.10;60.10
37300;DHT22;23184;51.902;12.836;2023-08-21T11:33:10;42.30;57.30
37300;DHT22;23184;51.902;12.836;2023-08-21T11:35:37;41.60;57.70
37300;DHT22;23184;51.902;12.836;2023-08-21T11:38:03;41.00;57.60
37300;DHT22;23184;51.902;12.836;2023-08-21T11:40:29;41.10;57.70
37300;DHT22;23184;51.902;12.836;2023-08-21T11:43:00;40.50;59.40
37300;DHT22;23184;51.902;12.836;2023-08-21T11:45:26;41.00;60.40
37300;DHT22;23184;51.902;12.836;2023-08-21T11:47:55;41.20;58.90
37300;DHT22;23184;51.902;12.836;2023-08-21T11:50:21;41.40;56.70
37300;DHT22;23184;51.902;12.836;2023-08-21T11:52:47;41.60;55.90
37300;DHT22;23184;51.902;12.836;2023-08-21T11:55:12;41.80;56.40
37300;DHT22;23184;51.902;12.836;2023-08-21T11:57:48;41.80;55.20
37300;DHT22;23184;51.902;12.836;2023-08-21T12:00:15;41.90;55.90
37300;DHT22;23184;51.902;12.836;2023-08-21T12:02:53;42.60;55.10
37300;DHT22;23184;51.902;12.836;2023-08-21T12:05:19;42.90;53.90
37300;DHT22;23184;51.902;12.836;2023-08-21T12:07:45;41.90;54.50
37300;DHT22;23184;51.902;12.836;2023-08-21T12:10:10;42.50;54.20
37300;DHT22;23184;51.902;12.836;2023-08-21T12:12:36;42.70;52.60
37300;DHT22;23184;51.902;12.836;2023-08-21T12:15:01;43.00;53.50
37300;DHT22;23184;51.902;12.836;2023-08-21T12:17:27;43.20;51.50
37300;DHT22;23184;51.902;12.836;2023-08-21T12:19:52;43.40;51.60
37300;DHT22;23184;51.902;12.836;2023-08-21T12:22:18;44.30;52.80
37300;DHT22;23184;51.902;12.836;2023-08-21T12:24:44;44.70;52.20
37300;DHT22;23184;51.902;12.836;2023-08-21T12:27:09;44.70;51.40
37300;DHT22;23184;51.902;12.836;2023-08-21T12:29:35;45.00;51.20
37300;DHT22;23184;51.902;12.836;2023-08-21T12:32:00;44.80;49.70
37300;DHT22;23184;51.902;12.836;2023-08-21T12:34:26;44.60;49.30
37300;DHT22;23184;51.902;12.836;2023-08-21T12:36:51;44.50;49.60
37300;DHT22;23184;51.902;12.836;2023-08-21T12:39:17;44.80;50.00
37300;DHT22;23184;51.902;12.836;2023-08-21T12:41:43;45.00;49.60
37300;DHT22;23184;51.902;12.836;2023-08-21T12:44:09;45.30;50.30
37300;DHT22;23184;51.902;12.836;2023-08-21T12:46:35;44.60;48.00
37300;DHT22;23184;51.902;12.836;2023-08-21T12:49:01;44.50;50.10
37300;DHT22;23184;51.902;12.836;2023-08-21T12:51:28;44.60;48.70
37300;DHT22;23184;51.902;12.836;2023-08-21T12:53:54;44.60;48.80
37300;DHT22;23184;51.902;12.836;2023-08-21T12:56:19;43.90;49.70
37300;DHT22;23184;51.902;12.836;2023-08-21T12:58:46;43.80;50.40
37300;DHT22;23184;51.902;12.836;2023-08-21T13:01:12;43.40;50.10
37300;DHT22;23184;51.902;12.836;2023-08-21T13:03:37;43.30;49.60
37300;DHT22;23184;51.902;12.836;2023-08-21T13:06:03;42.90;50.50
37300;DHT22;23184;51.902;12.836;2023-08-21T13:08:29;41.90;52.60
37300;DHT22;23184;51.902;12.836;2023-08-21T13:10:55;41.30;53.60
37300;DHT22;23184;51.902;12.836;2023-08-21T13:13:20;40.70;53.00
37300;DHT22;23184;51.902;12.836;2023-08-21T13:15:46;39.90;53.80
37300;DHT22;23184;51.902;12.836;2023-08-21T13:18:12;39.20;54.80
37300;DHT22;23184;51.902;12.836;2023-08-21T13:20:42;38.60;56.30
37300;DHT22;23184;51.902;12.836;2023-08-21T13:23:08;38.20;56.40
37300;DHT22;23184;51.902;12.836;2023-08-21T13:25:34;37.90;57.50
37300;DHT22;23184;51.902;12.836;2023-08-21T13:28:01;37.80;58.80
37300;DHT22;23184;51.902;12.836;2023-08-21T13:30:29;37.80;60.00
37300;DHT22;23184;51.902;12.836;2023-08-21T13:32:54;38.20;59.70
37300;DHT22;23184;51.902;12.836;2023-08-21T13:35:20;37.80;58.80
37300;DHT22;23184;51.902;12.836;2023-08-21T13:37:47;37.60;58.40
37300;DHT22;23184;51.902;12.836;2023-08-21T13:40:13;37.20;60.30
37300;DHT22;23184;51.902;12.836;2023-08-21T13:42:43;37.90;59.90
37300;DHT22;23184;51.902;12.836;2023-08-21T13:45:13;38.20;58.90
37300;DHT22;23184;51.902;12.836;2023-08-21T13:47:43;39.00;59.50
37300;DHT22;23184;51.902;12.836;2023-08-21T13:50:09;38.90;57.90
37300;DHT22;23184;51.902;12.836;2023-08-21T13:52:36;38.90;57.20
37300;DHT22;23184;51.902;12.836;2023-08-21T13:55:03;39.00;58.30
37300;DHT22;23184;51.902;12.836;2023-08-21T13:57:29;39.60;58.90
37300;DHT22;23184;51.902;12.836;2023-08-21T13:59:55;40.10;58.50
37300;DHT22;23184;51.902;12.836;2023-08-21T14:02:20;40.40;57.30
37300;DHT22;23184;51.902;12.836;2023-08-21T14:04:47;40.00;58.60
37300;DHT22;23184;51.902;12.836;2023-08-21T14:07:13;39.20;57.80
37300;DHT22;23184;51.902;12.836;2023-08-21T14:09:39;38.40;59.60
37300;DHT22;23184;51.902;12.836;2023-08-21T14:12:05;38.50;59.30
37300;DHT22;23184;51.902;12.836;2023-08-21T14:14:32;38.60;60.40
37300;DHT22;23184;51.902;12.836;2023-08-21T14:16:58;39.00;60.20
37300;DHT22;23184;51.902;12.836;2023-08-21T14:19:24;39.70;59.20
37300;DHT22;23184;51.902;12.836;2023-08-21T14:21:49;40.20;57.80
37300;DHT22;23184;51.902;12.836;2023-08-21T14:24:15;40.10;57.50
37300;DHT22;23184;51.902;12.836;2023-08-21T14:26:40;39.40;56.90
37300;DHT22;23184;51.902;12.836;2023-08-21T14:29:06;39.50;59.20
37300;DHT22;23184;51.902;12.836;2023-08-21T14:31:32;39.80;57.90
37300;DHT22;23184;51.902;12.836;2023-08-21T14:33:57;39.80;58.90
37300;DHT22;23184;51.902;12.836;2023-08-21T14:36:23;39.70;58.60
37300;DHT22;23184;51.902;12.836;2023-08-21T14:38:49;39.20;59.30
37300;DHT22;23184;51.902;12.836;2023-08-21T14:41:16;39.40;59.70
37300;DHT22;23184;51.902;12.836;2023-08-21T14:43:41;38.70;59.40
37300;DHT22;23184;51.902;12.836;2023-08-21T14:46:07;37.30;60.40
37300;DHT22;23184;51.902;12.836;2023-08-21T14:48:32;36.10;64.00
37300;DHT22;23184;51.902;12.836;2023-08-21T14:50:58;35.80;67.00
37300;DHT22;23184;51.902;12.836;2023-08-21T14:53:23;35.80;67.60
37300;DHT22;23184;51.902;12.836;2023-08-21T14:55:49;36.10;68.90
37300;DHT22;23184;51.902;12.836;2023-08-21T14:58:16;36.70;66.90
37300;DHT22;23184;51.902;12.836;2023-08-21T15:00:41;36.80;65.10
37300;DHT22;23184;51.902;12.836;2023-08-21T15:03:07;37.00;66.50
37300;DHT22;23184;51.902;12.836;2023-08-21T15:05:32;37.00;64.90
37300;DHT22;23184;51.902;12.836;2023-08-21T15:07:58;36.70;66.30
37300;DHT22;23184;51.902;12.836;2023-08-21T15:10:26;36.30;67.80
37300;DHT22;23184;51.902;12.836;2023-08-21T15:12:52;35.90;68.70
37300;DHT22;23184;51.902;12.836;2023-08-21T15:15:18;35.90;68.90
37300;DHT22;23184;51.902;12.836;2023-08-21T15:17:46;35.80;67.60
37300;DHT22;23184;51.902;12.836;2023-08-21T15:20:11;35.80;68.90